createdAt,value
2022-10-19T00:01:02.396Z,96.46
2022-10-19T00:03:30.600Z,95.89
2022-10-19T00:05:58.754Z,95.25
2022-10-19T00:08:27.071Z,95.01
2022-10-19T00:10:55.200Z,95.08
2022-10-19T00:13:24.551Z,95.46
2022-10-19T00:15:52.540Z,95.72
2022-10-19T00:18:20.705Z,95.11
2022-10-19T00:20:48.585Z,95.24
2022-10-19T00:23:16.807Z,95.15
2022-10-19T00:25:44.674Z,95.21
2022-10-19T00:28:12.536Z,94.77
2022-10-19T00:30:41.983Z,94.57
2022-10-19T00:33:10.148Z,94.08
2022-10-19T00:35:41.764Z,94.46
2022-10-19T00:38:09.772Z,94.38
2022-10-19T00:40:39.240Z,94.26
2022-10-19T00:43:11.039Z,94.06
2022-10-19T00:45:39.040Z,93.99
2022-10-19T00:48:09.257Z,93.98
2022-10-19T00:50:39.654Z,93.60
2022-10-19T00:53:07.536Z,93.48
2022-10-19T00:55:35.731Z,93.31
2022-10-19T00:58:04.355Z,93.07
2022-10-19T01:00:33.836Z,92.78
2022-10-19T01:03:02.760Z,92.46
2022-10-19T01:05:33.489Z,92.72
2022-10-19T01:08:01.815Z,92.73
2022-10-19T01:10:37.096Z,93.01
2022-10-19T01:13:20.020Z,92.74
2022-10-19T01:15:57.058Z,93.37
2022-10-19T01:18:35.675Z,92.84
2022-10-19T01:21:22.281Z,92.82
2022-10-19T01:24:15.862Z,93.35
2022-10-19T01:27:28.079Z,93.62
2022-10-19T01:30:12.407Z,94.52
2022-10-19T01:32:59.253Z,95.01
2022-10-19T01:35:34.110Z,95.51
2022-10-19T01:38:22.261Z,95.70
2022-10-19T01:40:59.218Z,95.64
2022-10-19T01:43:37.014Z,96.06
2022-10-19T01:46:12.796Z,96.78
2022-10-19T01:48:44.026Z,96.61
2022-10-19T01:51:17.283Z,96.80
2022-10-19T01:53:48.686Z,97.19
2022-10-19T01:56:19.346Z,97.63
2022-10-19T01:58:48.414Z,97.99
2022-10-19T02:01:20.790Z,98.30
2022-10-19T02:03:49.166Z,98.48
2022-10-19T02:06:17.197Z,98.38
2022-10-19T02:08:47.233Z,98.90
2022-10-19T02:11:15.581Z,98.53
2022-10-19T02:13:44.921Z,98.45
2022-10-19T02:16:20.088Z,98.68
2022-10-19T02:18:51.620Z,98.94
2022-10-19T02:21:19.962Z,98.19
2022-10-19T02:23:49.351Z,98.08
2022-10-19T02:26:19.974Z,97.88
2022-10-19T02:28:47.970Z,97.92
2022-10-19T02:31:18.474Z,98.50
2022-10-19T02:33:46.363Z,98.63
2022-10-19T02:36:14.127Z,98.30
2022-10-19T02:38:42.559Z,98.35
2022-10-19T02:41:17.136Z,98.38
2022-10-19T02:43:59.133Z,98.77
2022-10-19T02:46:33.485Z,98.63
2022-10-19T02:49:03.697Z,99.44
2022-10-19T02:51:34.043Z,99.36
2022-10-19T02:54:04.280Z,99.64
2022-10-19T02:56:33.590Z,99.52
2022-10-19T02:59:01.437Z,99.68
2022-10-19T03:01:30.380Z,99.71
2022-10-19T03:03:58.032Z,100.00
2022-10-19T03:06:25.786Z,100.00
2022-10-19T03:08:53.434Z,100.00
2022-10-19T03:11:21.077Z,100.00
2022-10-19T03:13:48.674Z,100.00
2022-10-19T03:16:16.283Z,100.00
2022-10-19T03:18:45.347Z,99.49
2022-10-19T03:21:14.349Z,98.88
2022-10-19T03:23:42.429Z,98.73
2022-10-19T03:26:13.082Z,98.20
2022-10-19T03:28:40.989Z,98.04
2022-10-19T03:31:10.509Z,97.96
2022-10-19T03:33:38.148Z,97.77
2022-10-19T03:36:19.633Z,97.78
2022-10-19T03:38:47.551Z,97.91
2022-10-19T03:41:15.137Z,98.28
2022-10-19T03:43:42.784Z,98.37
2022-10-19T03:46:10.854Z,98.34
2022-10-19T03:48:38.690Z,97.92
2022-10-19T03:51:08.827Z,97.71
2022-10-19T03:53:38.230Z,97.65
2022-10-19T03:56:07.193Z,97.77
2022-10-19T03:58:37.166Z,97.64
2022-10-19T04:01:09.504Z,97.85
2022-10-19T04:03:37.290Z,97.85
2022-10-19T04:06:07.120Z,97.93
2022-10-19T04:08:35.364Z,97.95
2022-10-19T04:11:06.092Z,97.80
2022-10-19T04:13:35.198Z,98.12
2022-10-19T04:16:02.935Z,98.05
2022-10-19T04:18:30.579Z,97.89
2022-10-19T04:20:58.826Z,97.71
2022-10-19T04:23:28.444Z,98.06
2022-10-19T04:26:00.687Z,97.73
2022-10-19T04:28:29.973Z,97.71
2022-10-19T04:30:57.950Z,97.39
2022-10-19T04:33:25.640Z,97.30
2022-10-19T04:35:59.086Z,96.97
2022-10-19T04:38:26.910Z,96.39
2022-10-19T04:40:54.489Z,96.01
2022-10-19T04:43:22.103Z,96.21
2022-10-19T04:45:51.143Z,96.13
2022-10-19T04:48:19.015Z,95.90
2022-10-19T04:50:46.730Z,95.55
2022-10-19T04:53:14.397Z,95.51
2022-10-19T04:55:42.532Z,96.19
2022-10-19T04:58:10.253Z,95.79
2022-10-19T05:00:39.050Z,95.12
2022-10-19T05:03:08.158Z,94.93
2022-10-19T05:05:36.516Z,94.74
2022-10-19T05:08:04.290Z,94.73
2022-10-19T05:10:32.342Z,95.03
2022-10-19T05:13:02.158Z,94.98
2022-10-19T05:15:29.844Z,94.80
2022-10-19T05:17:57.667Z,94.59
2022-10-19T05:20:27.234Z,94.66
2022-10-19T05:22:54.804Z,94.88
2022-10-19T05:25:22.522Z,94.55
2022-10-19T05:28:00.915Z,94.94
2022-10-19T05:30:28.570Z,94.75
2022-10-19T05:32:56.183Z,94.27
2022-10-19T05:35:23.798Z,94.65
2022-10-19T05:37:56.647Z,93.98
2022-10-19T05:40:24.236Z,94.20
2022-10-19T05:42:51.823Z,94.63
2022-10-19T05:45:19.458Z,94.27
2022-10-19T05:47:47.175Z,93.62
2022-10-19T05:50:14.778Z,93.26
2022-10-19T05:52:42.427Z,92.66
2022-10-19T05:55:11.808Z,92.64
2022-10-19T05:57:39.519Z,92.41
2022-10-19T06:00:08.054Z,91.91
2022-10-19T06:02:35.734Z,91.84
2022-10-19T06:05:03.545Z,91.17
2022-10-19T06:07:31.218Z,90.60
2022-10-19T06:09:58.874Z,90.17
2022-10-19T06:12:27.809Z,90.09
2022-10-19T06:14:55.458Z,89.98
2022-10-19T06:17:23.163Z,90.00
2022-10-19T06:19:50.772Z,90.17
2022-10-19T06:22:18.875Z,90.08
2022-10-19T06:24:46.535Z,89.63
2022-10-19T06:27:14.236Z,89.13
2022-10-19T06:29:43.312Z,89.44
2022-10-19T06:32:10.996Z,89.64
2022-10-19T06:34:38.651Z,89.40
2022-10-19T06:37:06.287Z,89.33
2022-10-19T06:39:33.973Z,89.08
2022-10-19T06:42:01.695Z,89.20
2022-10-19T06:44:29.376Z,88.87
2022-10-19T06:46:58.538Z,88.93
2022-10-19T06:49:26.195Z,88.93
2022-10-19T06:51:53.919Z,88.36
2022-10-19T06:54:21.654Z,88.48
2022-10-19T06:59:18.218Z,88.46
2022-10-19T07:01:46.149Z,87.83
2022-10-19T07:04:15.273Z,87.78
2022-10-19T07:06:43.006Z,87.60
2022-10-19T07:09:10.744Z,87.33
2022-10-19T07:11:42.427Z,87.39
2022-10-19T07:14:13.871Z,88.17
2022-10-19T07:16:41.804Z,87.99
2022-10-19T07:19:09.548Z,87.79
2022-10-19T07:21:41.610Z,87.60
2022-10-19T07:24:09.455Z,87.39
2022-10-19T07:26:37.176Z,87.59
2022-10-19T07:29:05.697Z,87.18
2022-10-19T07:31:33.681Z,87.26
2022-10-19T07:34:02.680Z,87.84
2022-10-19T07:36:33.138Z,87.30
2022-10-19T07:39:03.211Z,87.30
2022-10-19T07:41:30.793Z,86.76
2022-10-19T07:43:58.716Z,86.75
2022-10-19T07:46:29.525Z,86.64
2022-10-19T07:48:57.183Z,85.13
2022-10-19T07:51:24.901Z,84.82
2022-10-19T07:53:52.770Z,83.59
2022-10-19T07:56:23.806Z,83.08
2022-10-19T07:58:53.601Z,82.46
2022-10-19T08:01:23.520Z,81.75
2022-10-19T08:06:40.871Z,80.99
2022-10-19T08:09:08.660Z,80.82
2022-10-19T08:11:37.602Z,80.54
2022-10-19T08:14:05.271Z,79.61
2022-10-19T08:16:36.361Z,79.67
2022-10-19T08:19:07.040Z,80.70
2022-10-19T08:21:35.330Z,80.61
2022-10-19T08:24:03.027Z,81.03
2022-10-19T08:26:31.782Z,80.88
2022-10-19T08:29:05.350Z,80.95
2022-10-19T08:31:33.477Z,80.39
2022-10-19T08:34:01.182Z,80.31
2022-10-19T08:36:31.257Z,79.92
2022-10-19T08:38:59.380Z,79.78
2022-10-19T08:41:34.580Z,76.60
2022-10-19T08:44:28.654Z,73.32
2022-10-19T08:47:06.118Z,70.50
2022-10-19T08:49:35.609Z,68.25
2022-10-19T08:52:08.347Z,63.72
2022-10-19T08:54:42.322Z,58.00
2022-10-19T08:57:24.299Z,55.30
2022-10-19T09:00:00.847Z,51.66
2022-10-19T09:02:42.034Z,51.34
2022-10-19T09:05:21.565Z,49.16
2022-10-19T09:07:52.631Z,47.11
2022-10-19T09:10:25.673Z,45.07
2022-10-19T09:12:58.973Z,42.81
2022-10-19T09:15:34.435Z,42.91
2022-10-19T09:18:02.505Z,45.89
2022-10-19T09:20:38.273Z,49.00
2022-10-19T09:23:21.087Z,52.87
2022-10-19T09:25:50.771Z,56.99
2022-10-19T09:28:38.789Z,60.16
2022-10-19T09:31:15.743Z,63.51
2022-10-19T09:33:49.184Z,65.42
2022-10-19T09:36:22.543Z,68.05
2022-10-19T09:38:51.478Z,70.07
2022-10-19T09:41:21.848Z,71.49
2022-10-19T09:43:54.421Z,72.94
2022-10-19T09:46:31.855Z,74.13
2022-10-19T09:49:02.325Z,75.06
2022-10-19T09:51:40.733Z,75.81
2022-10-19T09:54:25.227Z,76.58
2022-10-19T09:56:57.238Z,77.63
2022-10-19T09:59:29.301Z,77.81
2022-10-19T10:02:16.963Z,78.49
2022-10-19T10:04:47.457Z,79.26
2022-10-19T10:07:18.239Z,79.25
2022-10-19T10:09:46.630Z,78.97
2022-10-19T10:12:17.020Z,78.82
2022-10-19T10:14:45.894Z,79.13
2022-10-19T10:17:19.112Z,79.64
2022-10-19T10:20:05.706Z,79.87
2022-10-19T10:22:36.638Z,79.71
2022-10-19T10:25:19.086Z,80.26
2022-10-19T10:27:56.018Z,80.57
2022-10-19T10:30:23.696Z,80.16
2022-10-19T10:32:55.036Z,80.94
2022-10-19T10:35:26.488Z,80.36
2022-10-19T10:38:04.047Z,80.27
2022-10-19T10:40:32.690Z,80.76
2022-10-19T10:43:07.314Z,80.64
2022-10-19T10:45:39.952Z,80.96
2022-10-19T10:48:22.349Z,80.97
2022-10-19T10:50:52.012Z,80.81
2022-10-19T10:53:35.742Z,80.69
2022-10-19T10:56:04.207Z,80.79
2022-10-19T10:58:43.269Z,80.94
2022-10-19T11:01:20.315Z,81.11
2022-10-19T11:03:55.311Z,80.84
2022-10-19T11:06:26.243Z,80.90
2022-10-19T11:09:04.357Z,81.13
2022-10-19T11:11:37.609Z,80.67
2022-10-19T11:14:23.105Z,80.95
2022-10-19T11:16:53.788Z,81.08
2022-10-19T11:19:27.758Z,81.35
2022-10-19T11:22:03.354Z,81.64
2022-10-19T11:24:42.717Z,82.17
2022-10-19T11:27:24.736Z,81.82
2022-10-19T11:30:04.048Z,82.00
2022-10-19T11:32:42.256Z,81.55
2022-10-19T11:35:25.228Z,80.64
2022-10-19T11:38:18.724Z,80.82
2022-10-19T11:43:54.550Z,81.02
2022-10-19T11:46:27.286Z,80.44
2022-10-19T11:49:16.969Z,79.42
2022-10-19T11:51:57.312Z,79.24
2022-10-19T11:54:38.274Z,78.77
2022-10-19T11:57:13.590Z,78.48
2022-10-19T12:00:13.900Z,78.31
2022-10-19T12:03:04.649Z,79.03
2022-10-19T12:05:38.743Z,78.89
2022-10-19T12:08:22.573Z,79.37
2022-10-19T12:10:58.245Z,80.48
2022-10-19T12:13:33.068Z,81.26
2022-10-19T12:16:01.412Z,81.21
2022-10-19T12:18:35.065Z,81.44
2022-10-19T12:21:05.941Z,81.45
2022-10-19T12:23:38.364Z,81.64
2022-10-19T12:26:09.001Z,81.52
2022-10-19T12:28:39.778Z,82.01
2022-10-19T12:31:10.356Z,81.34
2022-10-19T12:33:47.402Z,80.90
2022-10-19T12:36:33.807Z,80.77
2022-10-19T12:39:13.817Z,80.46
2022-10-19T12:41:46.920Z,80.71
2022-10-19T12:44:35.042Z,80.75
2022-10-19T12:47:11.515Z,81.32
2022-10-19T12:49:45.911Z,81.18
2022-10-19T12:52:14.908Z,81.61
2022-10-19T12:54:45.148Z,81.93
2022-10-19T12:57:27.613Z,81.62
2022-10-19T13:00:05.926Z,82.05
2022-10-19T13:02:36.387Z,81.96
2022-10-19T13:05:05.363Z,81.77
2022-10-19T13:07:36.971Z,81.91
2022-10-19T13:10:19.310Z,81.69
2022-10-19T13:12:48.371Z,81.96
2022-10-19T13:15:52.019Z,81.39
2022-10-19T13:19:08.233Z,80.71
2022-10-19T13:21:55.558Z,80.06
2022-10-19T13:24:35.676Z,78.96
2022-10-19T13:27:26.891Z,78.26
2022-10-19T13:29:54.940Z,77.17
2022-10-19T13:32:44.212Z,77.47
2022-10-19T13:35:33.173Z,76.96
2022-10-19T13:38:26.266Z,78.55
2022-10-19T13:41:02.218Z,78.59
2022-10-19T13:43:33.699Z,78.17
2022-10-19T13:46:12.542Z,78.78
2022-10-19T13:49:03.974Z,78.95
2022-10-19T13:51:38.639Z,79.45
2022-10-19T13:54:21.511Z,79.11
2022-10-19T13:57:12.102Z,79.11
2022-10-19T14:00:10.579Z,79.48
2022-10-19T14:03:11.751Z,80.02
2022-10-19T14:06:04.693Z,80.11
2022-10-19T14:08:52.963Z,80.36
2022-10-19T14:11:25.414Z,80.89
2022-10-19T14:14:13.560Z,80.36
2022-10-19T14:16:52.392Z,79.76
2022-10-19T14:19:27.846Z,78.51
2022-10-19T14:21:57.450Z,77.71
2022-10-19T14:24:31.230Z,77.46
2022-10-19T14:27:01.449Z,76.91
2022-10-19T14:29:29.469Z,76.78
2022-10-19T14:32:00.589Z,77.27
2022-10-19T14:34:28.218Z,77.43
2022-10-19T14:36:56.049Z,77.49
2022-10-19T14:39:27.963Z,77.71
2022-10-19T14:42:00.451Z,77.20
2022-10-19T14:44:40.018Z,77.64
2022-10-19T14:47:22.277Z,76.87
2022-10-19T14:49:50.692Z,76.92
2022-10-19T14:55:08.190Z,76.78
2022-10-19T14:57:38.672Z,78.07
2022-10-19T15:00:10.143Z,78.16
2022-10-19T15:02:44.286Z,78.89
2022-10-19T15:05:21.283Z,78.24
2022-10-19T15:07:54.669Z,78.26
2022-10-19T15:10:25.489Z,77.59
2022-10-19T15:12:58.716Z,77.49
2022-10-19T15:15:28.830Z,77.53
2022-10-19T15:18:04.391Z,77.21
2022-10-19T15:20:43.905Z,77.84
2022-10-19T15:23:36.273Z,77.51
2022-10-19T15:26:17.216Z,76.81
2022-10-19T15:28:45.616Z,77.12
2022-10-19T15:31:19.354Z,77.29
2022-10-19T15:33:51.253Z,76.88
2022-10-19T15:36:21.204Z,76.27
2022-10-19T15:38:50.440Z,75.96
2022-10-19T15:41:21.345Z,75.88
2022-10-19T15:43:52.099Z,76.40
2022-10-19T15:46:30.929Z,75.84
2022-10-19T15:49:02.126Z,76.41
2022-10-19T15:51:48.320Z,76.66
2022-10-19T15:54:18.983Z,77.52
2022-10-19T15:56:48.306Z,77.88
2022-10-19T15:59:18.064Z,77.07
2022-10-19T16:01:51.112Z,76.83
2022-10-19T16:04:24.152Z,77.07
2022-10-19T16:06:51.843Z,78.42
2022-10-19T16:09:20.958Z,77.20
2022-10-19T16:11:49.045Z,76.87
2022-10-19T16:16:51.051Z,76.98
2022-10-19T16:19:18.746Z,76.83
2022-10-19T16:21:50.293Z,77.41
2022-10-19T16:24:18.195Z,78.29
2022-10-19T16:26:45.793Z,78.61
2022-10-19T16:29:13.431Z,79.35
2022-10-19T16:31:41.033Z,79.62
2022-10-19T16:34:08.677Z,80.35
2022-10-19T16:36:36.262Z,80.04
2022-10-19T16:39:05.439Z,79.93
2022-10-19T16:41:33.195Z,80.47
2022-10-19T16:44:00.840Z,80.62
2022-10-19T16:46:28.589Z,80.46
2022-10-19T16:48:56.335Z,80.31
2022-10-19T16:51:35.403Z,80.57
2022-10-19T16:54:03.983Z,80.72
2022-10-19T16:56:34.019Z,80.11
2022-10-19T16:59:03.603Z,80.19
2022-10-19T17:01:32.471Z,79.47
2022-10-19T17:04:00.920Z,79.42
2022-10-19T17:06:29.448Z,80.86
2022-10-19T17:11:47.350Z,79.94
2022-10-19T17:14:14.907Z,80.47
2022-10-19T17:16:42.631Z,81.44
2022-10-19T17:19:11.729Z,81.00
2022-10-19T17:21:41.983Z,80.59
2022-10-19T17:24:20.218Z,79.95
2022-10-19T17:26:51.716Z,80.59
2022-10-19T17:29:20.326Z,80.33
2022-10-19T17:31:48.060Z,79.97
2022-10-19T17:34:15.987Z,79.94
2022-10-19T17:36:45.667Z,80.95
2022-10-19T17:39:17.395Z,80.46
2022-10-19T17:41:45.717Z,80.02
2022-10-19T17:44:15.417Z,81.02
2022-10-19T17:46:43.686Z,81.09
2022-10-19T17:49:11.623Z,81.30
2022-10-19T17:51:39.629Z,82.03
2022-10-19T17:54:10.994Z,82.78
2022-10-19T17:56:40.086Z,82.78
2022-10-19T17:59:10.396Z,82.92
2022-10-19T18:01:39.342Z,82.82
2022-10-19T18:04:07.187Z,83.37
2022-10-19T18:06:37.940Z,83.38
2022-10-19T18:09:08.336Z,83.13
2022-10-19T18:11:38.601Z,82.90
2022-10-19T18:14:12.359Z,83.49
2022-10-19T18:16:44.600Z,83.83
2022-10-19T18:19:12.617Z,83.47
2022-10-19T18:21:45.189Z,83.80
2022-10-19T18:24:16.710Z,83.44
2022-10-19T18:26:44.546Z,83.63
2022-10-19T18:29:14.167Z,83.90
2022-10-19T18:31:43.307Z,83.71
2022-10-19T18:34:14.905Z,83.33
2022-10-19T18:36:42.907Z,83.24
2022-10-19T18:39:11.782Z,82.80
2022-10-19T18:41:40.453Z,83.35
2022-10-19T18:44:08.858Z,83.72
2022-10-19T18:46:38.062Z,83.89
2022-10-19T18:49:08.656Z,84.41
2022-10-19T18:51:37.131Z,83.79
2022-10-19T18:54:05.276Z,83.77
2022-10-19T18:56:36.391Z,83.73
2022-10-19T18:59:04.191Z,84.22
2022-10-19T19:01:32.220Z,84.10
2022-10-19T19:04:07.987Z,83.63
2022-10-19T19:06:36.378Z,83.59
2022-10-19T19:09:07.554Z,83.78
2022-10-19T19:11:38.119Z,83.89
2022-10-19T19:14:08.626Z,83.31
2022-10-19T19:16:38.729Z,83.91
2022-10-19T19:19:08.419Z,83.57
2022-10-19T19:21:37.341Z,83.45
2022-10-19T19:24:08.158Z,84.15
2022-10-19T19:26:41.134Z,83.73
2022-10-19T19:29:11.352Z,83.73
2022-10-19T19:31:39.269Z,83.59
2022-10-19T19:34:12.785Z,83.94
2022-10-19T19:36:48.352Z,84.36
2022-10-19T19:39:20.284Z,84.27
2022-10-19T19:41:48.533Z,83.79
2022-10-19T19:44:18.639Z,83.79
2022-10-19T19:46:46.394Z,83.88
2022-10-19T19:49:16.702Z,83.83
2022-10-19T19:51:44.299Z,83.99
2022-10-19T19:54:12.191Z,83.96
2022-10-19T19:56:40.106Z,83.83
2022-10-19T19:59:07.693Z,84.06
2022-10-19T20:01:37.224Z,83.97
2022-10-19T20:04:05.585Z,84.17
2022-10-19T20:06:40.574Z,83.81
2022-10-19T20:09:10.539Z,84.05
2022-10-19T20:11:42.869Z,83.61
2022-10-19T20:14:12.971Z,83.88
2022-10-19T20:16:40.671Z,83.60
2022-10-19T20:19:10.186Z,83.53
2022-10-19T20:21:40.013Z,84.02
2022-10-19T20:24:13.871Z,84.46
2022-10-19T20:26:41.483Z,85.00
2022-10-19T20:29:15.072Z,85.70
2022-10-19T20:31:42.713Z,85.25
2022-10-19T20:34:13.835Z,85.33
2022-10-19T20:36:45.343Z,85.30
2022-10-19T20:39:13.023Z,84.92
2022-10-19T20:41:44.343Z,85.56
2022-10-19T20:44:15.984Z,85.91
2022-10-19T20:46:43.604Z,85.76
2022-10-19T20:49:16.115Z,86.04
2022-10-19T20:51:46.280Z,86.42
2022-10-19T20:54:14.719Z,86.29
2022-10-19T20:56:43.105Z,87.17
2022-10-19T20:59:14.349Z,86.83
2022-10-19T21:01:43.590Z,86.93
2022-10-19T21:04:13.638Z,86.71
2022-10-19T21:06:42.989Z,86.67
2022-10-19T21:09:13.022Z,86.17
2022-10-19T21:11:42.339Z,86.86
2022-10-19T21:14:13.819Z,86.83
2022-10-19T21:16:41.957Z,86.65
2022-10-19T21:19:12.759Z,86.64
2022-10-19T21:21:42.365Z,86.51
2022-10-19T21:24:14.781Z,85.94
2022-10-19T21:26:42.818Z,86.28
2022-10-19T21:29:12.154Z,87.24
2022-10-19T21:31:43.091Z,87.22
2022-10-19T21:34:14.444Z,86.31
2022-10-19T21:36:42.105Z,85.97
2022-10-19T21:39:10.100Z,85.93
2022-10-19T21:41:39.323Z,86.60
2022-10-19T21:44:07.113Z,87.40
2022-10-19T21:46:34.742Z,87.09
2022-10-19T21:49:02.795Z,87.16
2022-10-19T21:51:35.817Z,86.75
2022-10-19T21:54:04.306Z,86.92
2022-10-19T21:56:32.583Z,86.67
2022-10-19T21:59:01.618Z,86.27
2022-10-19T22:01:30.808Z,86.20
2022-10-19T22:03:58.991Z,86.09
2022-10-19T22:06:28.158Z,86.19
2022-10-19T22:08:56.457Z,85.60
2022-10-19T22:11:25.515Z,85.32
2022-10-19T22:13:55.239Z,85.51
2022-10-19T22:16:25.130Z,85.05
2022-10-19T22:18:53.267Z,85.00
2022-10-19T22:21:23.121Z,85.50
2022-10-19T22:23:55.271Z,85.33
2022-10-19T22:26:24.666Z,85.16
2022-10-19T22:28:52.452Z,85.04
2022-10-19T22:31:20.402Z,84.70
2022-10-19T22:33:49.343Z,84.62
2022-10-19T22:36:17.083Z,84.04
2022-10-19T22:38:44.757Z,84.45
2022-10-19T22:41:12.350Z,85.14
2022-10-19T22:43:39.977Z,84.77
2022-10-19T22:46:07.607Z,84.45
2022-10-19T22:48:35.189Z,84.24
2022-10-19T22:51:04.265Z,83.96
2022-10-19T22:53:31.874Z,83.67
2022-10-19T22:55:59.507Z,83.74
2022-10-19T22:58:27.079Z,83.99
2022-10-19T23:01:03.680Z,83.34
2022-10-19T23:03:31.284Z,83.60
2022-10-19T23:05:58.963Z,83.92
2022-10-19T23:08:28.051Z,83.95
2022-10-19T23:10:55.652Z,83.64
2022-10-19T23:13:23.506Z,83.53
2022-10-19T23:15:51.535Z,83.73
2022-10-19T23:18:19.140Z,83.63
2022-10-19T23:20:54.064Z,84.11
2022-10-19T23:23:21.748Z,84.44
2022-10-19T23:26:00.358Z,84.66
2022-10-19T23:28:28.139Z,85.10
2022-10-19T23:30:57.160Z,84.71
2022-10-19T23:33:25.269Z,84.10
2022-10-19T23:35:53.078Z,84.08
2022-10-19T23:38:20.735Z,84.70
2022-10-19T23:40:48.390Z,84.09
2022-10-19T23:43:17.318Z,84.56
2022-10-19T23:45:46.213Z,84.27
2022-10-19T23:48:13.818Z,84.86
2022-10-19T23:50:41.396Z,85.07
2022-10-19T23:53:08.980Z,84.99
2022-10-19T23:55:36.550Z,84.49
2022-10-19T23:58:04.151Z,84.41
